Dillingham, AK

6:44 AM AKDT on October 02, 2014 (GMT -0800)
Egegik | Change Station
CLOSE
Current Station
Airport
Location: Egegik,
Elevation: 92 ft
Nearby Weather Stations

Elev 92 ft 58.19 °N, 157.39 °W | Updated 8 minutes ago

Clear
Clear
36 °F
Feels Like 30 °F
N
7
Wind Variable Wind from NE

Today
High -- | Low -- °F
--% Chance of Precip.
Yesterday
High -- | Low -- °F
Precip. -- in
8:41 AM 8:03 PM
First Quarter, 59% visible
Pressure 29.86 in
Visibility 10.0 miles
Clouds Clear
Windchill 30 °F
Dew Point 30 °F
Humidity 81%
Rainfall 0.00 in
Snow Depth 2 in , 0 in , 19 in
UV 0 out of 12
Pollen Not available.
Air Quality Not available.
Flu Activity Not available.
METAR PAII 021436Z AUTO 04006KT 10SM CLR 02/M01 A2986 RMK AO1

More Conditions Fewer Conditions

Pressure 29.86 in
Visibility 10.0 miles
Clouds Clear
Windchill 30 °F
Dew Point 30 °F
Humidity 81%
Rainfall 0.00 in
Snow Depth 2 in , 0 in , 19 in
UV 0 out of 12
Pollen Not available.
Air Quality Not available.
Flu Activity Not available.
METAR PAII 021436Z AUTO 04006KT 10SM CLR 02/M01 A2986 RMK AO1

More Conditions Fewer Conditions

10-Day Weather Forecast

Almanac

Astronomy

Oct. 02, 2014 Rise Set
Actual Time 8:41 AM AKDT 8:03 PM AKDT
Civil Twilight 8:01 AM AKDT 8:43 PM AKDT
Nautical Twilight 7:14 AM AKDT 9:30 PM AKDT
Astronomical Twilight 6:24 AM AKDT 10:19 PM AKDT
Moon 5:29 PM AKDT 12:52 AM AKDT
Length of Visible Light 12h 42m
Length of Day
11h 21m
Tomorrow will be 5m 11s shorter.
First Quarter, 59% of the Moon is Illuminated
Today
First Quarter
Oct 8
Full
Oct 15
Last Quarter
Oct 23
New
Oct 30
First Quarter

Today's Extremes

State Highs State Lows

Community

WunderPhotos

Upload Photos

1,758,257 photos uploaded!

WunderBlogs® & News

By Dr. Jeff Masters
Director of Meteorology, Weather Underground
By Kari Strenfel
Meteorologist, Weather Underground
By Christopher C. Burt
Weather Historian, Weather Underground
October 2, 2014
October 2, 2014
October 2, 2014

Nearby

Snow Depth

Station Depth Elevation
Rocky Point 2 in 500 ft
Port Graham 0 in 300 ft
Grandview 19 in 1100 ft
Mt. Ryan 3 in 2800 ft
Monument Creek 2 in 1850 ft

Earthquake Activity

City Distance Mag. Time & Date
No recent earthquake activity has been reported nearby.
Minimum magnitude displayed is 2.5.

Coastal Water Temperatures

Place Temperature
No Stations Reporting

Nearby Weather Stations